Time,TemperatureF,DewpointF,PressureIn,WindDirection,WindDirectionDegrees,WindSpeedMPH,WindSpeedGustMPH,Humidity,HourlyPrecipIn,Conditions,Clouds,dailyrainin,SoftwareType,DateUTC
2013-07-26 00:14:00,68.2,64.8,29.83,SSE,157,2.7,-999.0,89,-99.99,,,0.00,Acu-Link.com,2013-07-26 05:14:00,
2013-07-26 00:30:00,67.8,64.8,29.83,SSW,202,0.0,-999.0,90,-99.99,,,0.00,Acu-Link.com,2013-07-26 05:30:00,
2013-07-26 00:45:00,67.6,64.6,29.83,West,270,0.0,-999.0,90,-99.99,,,0.00,Acu-Link.com,2013-07-26 05:45:00,
2013-07-26 01:00:00,67.3,64.3,29.82,NW,315,0.0,-999.0,90,-99.99,,,0.00,Acu-Link.com,2013-07-26 06:00:00,
2013-07-26 01:15:00,67.1,64.4,29.82,NW,315,0.0,-999.0,91,-99.99,,,0.00,Acu-Link.com,2013-07-26 06:15:00,
2013-07-26 01:30:00,67.3,64.9,29.82,NW,315,0.0,-999.0,92,-99.99,,,0.00,Acu-Link.com,2013-07-26 06:30:00,
2013-07-26 01:46:00,67.5,65.1,29.81,NW,315,0.0,-999.0,92,-99.99,,,0.00,Acu-Link.com,2013-07-26 06:46:00,
2013-07-26 02:01:00,67.1,64.7,29.81,SSW,202,2.7,-999.0,92,-99.99,,,0.00,Acu-Link.com,2013-07-26 07:01:00,
2013-07-26 02:16:00,67.6,65.5,29.81,SSE,157,3.7,-999.0,93,-99.99,,,0.00,Acu-Link.com,2013-07-26 07:16:00,
2013-07-26 02:31:00,67.6,65.5,29.81,South,180,1.7,-999.0,93,-99.99,,,0.00,Acu-Link.com,2013-07-26 07:31:00,
2013-07-26 02:47:00,67.6,65.5,29.80,South,180,0.0,-999.0,93,-99.99,,,0.00,Acu-Link.com,2013-07-26 07:47:00,
2013-07-26 03:02:00,67.3,65.2,29.80,South,180,0.0,-999.0,93,-99.99,,,0.00,Acu-Link.com,2013-07-26 08:02:00,
2013-07-26 03:17:00,67.1,65.0,29.80,South,180,0.0,-999.0,93,-99.99,,,0.00,Acu-Link.com,2013-07-26 08:17:00,
2013-07-26 03:32:00,67.3,65.5,29.80,South,180,2.7,-999.0,94,-99.99,,,0.00,Acu-Link.com,2013-07-26 08:32:00,
2013-07-26 03:48:00,66.6,64.8,29.80,South,180,0.0,-999.0,94,-99.99,,,0.00,Acu-Link.com,2013-07-26 08:48:00,
2013-07-26 04:03:00,65.8,64.0,29.80,South,180,0.0,-999.0,94,-99.99,,,0.00,Acu-Link.com,2013-07-26 09:03:00,
2013-07-26 04:18:00,65.7,63.9,29.80,South,180,0.0,-999.0,94,-99.99,,,0.00,Acu-Link.com,2013-07-26 09:18:00,
2013-07-26 04:34:00,65.5,63.7,29.80,South,180,0.0,-999.0,94,-99.99,,,0.00,Acu-Link.com,2013-07-26 09:34:00,
2013-07-26 04:49:00,65.7,63.9,29.80,South,180,1.7,-999.0,94,-99.99,,,0.00,Acu-Link.com,2013-07-26 09:49:00,
2013-07-26 05:04:00,65.3,63.5,29.80,SSW,202,0.0,-999.0,94,-99.99,,,0.00,Acu-Link.com,2013-07-26 10:04:00,
2013-07-26 05:19:00,65.1,63.3,29.81,SSW,202,0.0,-999.0,94,-99.99,,,0.00,Acu-Link.com,2013-07-26 10:19:00,
2013-07-26 05:34:00,64.8,63.3,29.81,SSW,202,0.0,-999.0,95,-99.99,,,0.00,Acu-Link.com,2013-07-26 10:34:00,
2013-07-26 05:50:00,64.6,63.1,29.82,WSW,247,0.0,-999.0,95,-99.99,,,0.00,Acu-Link.com,2013-07-26 10:50:00,
2013-07-26 06:05:00,64.2,62.7,29.82,West,270,2.7,-999.0,95,-99.99,,,0.00,Acu-Link.com,2013-07-26 11:05:00,
2013-07-26 06:20:00,63.5,62.0,29.83,West,270,2.2,-999.0,95,-99.99,,,0.00,Acu-Link.com,2013-07-26 11:20:00,
2013-07-26 06:35:00,64.0,62.5,29.84,West,270,2.2,-999.0,95,-99.99,,,0.00,Acu-Link.com,2013-07-26 11:35:00,
2013-07-26 06:51:00,64.9,63.4,29.84,WNW,292,3.2,-999.0,95,-99.99,,,0.00,Acu-Link.com,2013-07-26 11:51:00,
2013-07-26 07:06:00,66.0,64.5,29.84,NNW,337,4.7,-999.0,95,-99.99,,,0.00,Acu-Link.com,2013-07-26 12:06:00,
2013-07-26 07:21:00,66.9,65.4,29.84,NW,315,4.2,-999.0,95,-99.99,,,0.00,Acu-Link.com,2013-07-26 12:21:00,
2013-07-26 07:36:00,68.4,65.3,29.84,NNW,337,4.7,-999.0,90,-99.99,,,0.00,Acu-Link.com,2013-07-26 12:36:00,
2013-07-26 08:07:00,70.3,65.2,29.85,NNE,22,6.3,-999.0,84,-99.99,,,0.00,Acu-Link.com,2013-07-26 13:07:00,
2013-07-26 08:22:00,71.2,64.7,29.86,NNE,22,7.3,-999.0,80,-99.99,,,0.00,Acu-Link.com,2013-07-26 13:22:00,
2013-07-26 08:37:00,72.1,64.9,29.86,NNW,337,6.3,-999.0,78,-99.99,,,0.00,Acu-Link.com,2013-07-26 13:37:00,
2013-07-26 08:52:00,71.4,64.2,29.86,NNW,337,13.0,-999.0,78,-99.99,,,0.00,Acu-Link.com,2013-07-26 13:52:00,
2013-07-26 09:07:00,72.5,64.1,29.87,NNW,337,8.3,-999.0,75,-99.99,,,0.00,Acu-Link.com,2013-07-26 14:07:00,
2013-07-26 09:23:00,73.9,65.1,29.88,NNW,337,11.9,-999.0,74,-99.99,,,0.00,Acu-Link.com,2013-07-26 14:23:00,
2013-07-26 09:38:00,73.8,65.0,29.88,NE,45,12.5,-999.0,74,-99.99,,,0.01,Acu-Link.com,2013-07-26 14:38:00,
2013-07-26 09:53:00,74.7,64.7,29.89,NNW,337,9.9,-999.0,71,-99.99,,,0.01,Acu-Link.com,2013-07-26 14:53:00,
2013-07-26 10:08:00,74.7,63.8,29.89,NW,315,12.5,-999.0,69,-99.99,,,0.01,Acu-Link.com,2013-07-26 15:08:00,
2013-07-26 10:23:00,74.5,61.9,29.90,NNW,337,12.5,-999.0,65,-99.99,,,0.01,Acu-Link.com,2013-07-26 15:23:00,
2013-07-26 10:38:00,74.7,61.3,29.90,NNE,22,14.5,-999.0,63,-99.99,,,0.01,Acu-Link.com,2013-07-26 15:38:00,
2013-07-26 10:53:00,75.7,60.3,29.91,NNW,337,15.5,-999.0,59,-99.99,,,0.01,Acu-Link.com,2013-07-26 15:53:00,
2013-07-26 11:08:00,75.9,58.0,29.92,North,0,13.0,-999.0,54,-99.99,,,0.01,Acu-Link.com,2013-07-26 16:08:00,
2013-07-26 11:23:00,76.3,58.4,29.92,WNW,292,10.9,-999.0,54,-99.99,,,0.01,Acu-Link.com,2013-07-26 16:23:00,
2013-07-26 11:38:00,77.2,59.2,29.92,West,270,10.9,-999.0,54,-99.99,,,0.01,Acu-Link.com,2013-07-26 16:38:00,
2013-07-26 11:53:00,76.6,57.6,29.92,NNE,22,11.9,-999.0,52,-99.99,,,0.01,Acu-Link.com,2013-07-26 16:53:00,
2013-07-26 12:08:00,77.5,58.5,29.93,NNW,337,14.0,-999.0,52,-99.99,,,0.01,Acu-Link.com,2013-07-26 17:08:00,
2013-07-26 12:23:00,77.5,59.5,29.92,NNE,22,10.4,-999.0,54,-99.99,,,0.01,Acu-Link.com,2013-07-26 17:23:00,
2013-07-26 12:38:00,78.6,60.0,29.92,NNW,337,15.0,-999.0,53,-99.99,,,0.01,Acu-Link.com,2013-07-26 17:38:00,
2013-07-26 12:53:00,77.9,59.4,29.92,NNW,337,10.4,-999.0,53,-99.99,,,0.01,Acu-Link.com,2013-07-26 17:53:00,
2013-07-26 13:08:00,78.4,60.4,29.92,WNW,292,10.4,-999.0,54,-99.99,,,0.01,Acu-Link.com,2013-07-26 18:08:00,
2013-07-26 13:23:00,78.6,58.9,29.91,North,0,9.4,-999.0,51,-99.99,,,0.01,Acu-Link.com,2013-07-26 18:23:00,
2013-07-26 13:38:00,78.6,58.9,29.91,NW,315,10.4,-999.0,51,-99.99,,,0.01,Acu-Link.com,2013-07-26 18:38:00,
2013-07-26 13:53:00,78.4,59.3,29.90,NNE,22,9.9,-999.0,52,-99.99,,,0.01,Acu-Link.com,2013-07-26 18:53:00,
2013-07-26 14:08:00,79.5,59.2,29.90,NW,315,9.4,-999.0,50,-99.99,,,0.01,Acu-Link.com,2013-07-26 19:08:00,
2013-07-26 14:23:00,79.2,55.4,29.90,NNW,337,5.3,-999.0,44,-99.99,,,0.01,Acu-Link.com,2013-07-26 19:23:00,
2013-07-26 14:39:00,79.3,54.2,29.90,North,0,11.4,-999.0,42,-99.99,,,0.01,Acu-Link.com,2013-07-26 19:39:00,
2013-07-26 14:54:00,78.8,54.4,29.90,NNW,337,14.5,-999.0,43,-99.99,,,0.01,Acu-Link.com,2013-07-26 19:54:00,
2013-07-26 15:09:00,78.3,53.3,29.90,NNW,337,15.5,-999.0,42,-99.99,,,0.01,Acu-Link.com,2013-07-26 20:09:00,
2013-07-26 15:24:00,79.7,54.6,29.90,WNW,292,18.6,-999.0,42,-99.99,,,0.01,Acu-Link.com,2013-07-26 20:24:00,
2013-07-26 15:39:00,78.4,53.4,29.89,NNE,22,11.4,-999.0,42,-99.99,,,0.01,Acu-Link.com,2013-07-26 20:39:00,
2013-07-26 15:54:00,79.3,54.2,29.89,NW,315,14.0,-999.0,42,-99.99,,,0.01,Acu-Link.com,2013-07-26 20:54:00,
2013-07-26 16:09:00,79.2,54.1,29.89,NNW,337,13.5,-999.0,42,-99.99,,,0.01,Acu-Link.com,2013-07-26 21:09:00,
2013-07-26 16:24:00,79.0,54.6,29.89,North,0,16.6,-999.0,43,-99.99,,,0.01,Acu-Link.com,2013-07-26 21:24:00,
2013-07-26 16:40:00,78.8,55.6,29.89,NNE,22,9.9,-999.0,45,-99.99,,,0.01,Acu-Link.com,2013-07-26 21:40:00,
2013-07-26 16:55:00,77.9,53.6,29.89,NNE,22,10.9,-999.0,43,-99.99,,,0.01,Acu-Link.com,2013-07-26 21:55:00,
2013-07-26 17:10:00,77.5,53.8,29.90,North,0,9.9,-999.0,44,-99.99,,,0.01,Acu-Link.com,2013-07-26 22:10:00,
2013-07-26 17:25:00,78.1,53.8,29.90,NW,315,14.0,-999.0,43,-99.99,,,0.01,Acu-Link.com,2013-07-26 22:25:00,
2013-07-26 17:40:00,77.7,54.0,29.90,NNW,337,11.9,-999.0,44,-99.99,,,0.01,Acu-Link.com,2013-07-26 22:40:00,
2013-07-26 17:55:00,77.0,55.2,29.90,NNW,337,9.4,-999.0,47,-99.99,,,0.01,Acu-Link.com,2013-07-26 22:55:00,
2013-07-26 18:11:00,76.1,54.4,29.90,NW,315,13.5,-999.0,47,-99.99,,,0.01,Acu-Link.com,2013-07-26 23:11:00,
2013-07-26 18:41:00,75.4,54.3,29.90,NNW,337,11.4,-999.0,48,-99.99,,,0.01,Acu-Link.com,2013-07-26 23:41:00,
2013-07-26 18:57:00,75.2,53.6,29.91,NNE,22,11.9,-999.0,47,-99.99,,,0.01,Acu-Link.com,2013-07-26 23:57:00,
2013-07-26 19:12:00,74.5,52.9,29.91,NNW,337,9.4,-999.0,47,-99.99,,,0.01,Acu-Link.com,2013-07-27 00:12:00,
2013-07-26 19:27:00,74.7,54.8,29.91,WNW,292,8.3,-999.0,50,-99.99,,,0.01,Acu-Link.com,2013-07-27 00:27:00,
2013-07-26 19:42:00,73.0,54.3,29.91,NNE,22,8.9,-999.0,52,-99.99,,,0.01,Acu-Link.com,2013-07-27 00:42:00,
2013-07-26 19:57:00,72.1,54.0,29.91,NE,45,6.3,-999.0,53,-99.99,,,0.01,Acu-Link.com,2013-07-27 00:57:00,
2013-07-26 20:12:00,70.9,53.9,29.92,NNW,337,8.3,-999.0,55,-99.99,,,0.01,Acu-Link.com,2013-07-27 01:12:00,
2013-07-26 20:28:00,69.3,53.4,29.92,NNE,22,6.8,-999.0,57,-99.99,,,0.01,Acu-Link.com,2013-07-27 01:28:00,
2013-07-26 20:43:00,67.5,53.1,29.92,NNE,22,4.2,-999.0,60,-99.99,,,0.01,Acu-Link.com,2013-07-27 01:43:00,
2013-07-26 20:58:00,64.8,52.8,29.92,NW,315,3.2,-999.0,65,-99.99,,,0.01,Acu-Link.com,2013-07-27 01:58:00,
2013-07-26 21:13:00,63.0,52.3,29.93,WNW,292,3.2,-999.0,68,-99.99,,,0.01,Acu-Link.com,2013-07-27 02:13:00,
2013-07-26 21:28:00,61.9,52.0,29.93,WNW,292,1.7,-999.0,70,-99.99,,,0.01,Acu-Link.com,2013-07-27 02:28:00,
2013-07-26 21:43:00,61.3,51.8,29.93,NW,315,3.2,-999.0,71,-99.99,,,0.01,Acu-Link.com,2013-07-27 02:43:00,
2013-07-26 21:59:00,60.4,51.7,29.93,NW,315,2.7,-999.0,73,-99.99,,,0.01,Acu-Link.com,2013-07-27 02:59:00,
2013-07-26 22:14:00,59.7,51.4,29.93,West,270,2.2,-999.0,74,-99.99,,,0.01,Acu-Link.com,2013-07-27 03:14:00,
2013-07-26 22:29:00,58.6,51.8,29.93,West,270,3.2,-999.0,78,-99.99,,,0.01,Acu-Link.com,2013-07-27 03:29:00,
2013-07-26 22:44:00,58.3,52.2,29.94,West,270,2.7,-999.0,80,-99.99,,,0.01,Acu-Link.com,2013-07-27 03:44:00,
2013-07-26 23:00:00,58.5,52.0,29.93,West,270,4.2,-999.0,79,-99.99,,,0.01,Acu-Link.com,2013-07-27 04:00:00,
2013-07-26 23:15:00,57.7,51.2,29.93,WSW,247,2.7,-999.0,79,-99.99,,,0.01,Acu-Link.com,2013-07-27 04:15:00,
2013-07-26 23:30:00,57.0,51.2,29.93,WSW,247,2.2,-999.0,81,-99.99,,,0.01,Acu-Link.com,2013-07-27 04:30:00,
2013-07-26 23:46:00,57.4,51.6,29.94,West,270,3.7,-999.0,81,-99.99,,,0.01,Acu-Link.com,2013-07-27 04:46:00,